sensor_id;sensor_type;location;lat;lon;timestamp;pressure;altitude;pressure_sealevel;temperature;humidity
19005;BME280;9635;52.078;8.648;2022-08-03T00:02:22;100389.94;;;20.83;60.66
19005;BME280;9635;52.078;8.648;2022-08-03T00:07:25;100391.38;;;20.79;60.43
19005;BME280;9635;52.078;8.648;2022-08-03T00:12:29;100394.75;;;20.66;61.13
19005;BME280;9635;52.078;8.648;2022-08-03T00:17:32;100389.88;;;20.62;60.97
19005;BME280;9635;52.078;8.648;2022-08-03T00:22:54;100378.66;;;20.56;61.12
19005;BME280;9635;52.078;8.648;2022-08-03T00:27:58;100379.91;;;20.54;61.17
19005;BME280;9635;52.078;8.648;2022-08-03T00:33:01;100380.94;;;20.53;61.35
19005;BME280;9635;52.078;8.648;2022-08-03T00:38:05;100382.81;;;20.52;61.14
19005;BME280;9635;52.078;8.648;2022-08-03T00:43:09;100376.53;;;20.52;60.93
19005;BME280;9635;52.078;8.648;2022-08-03T00:48:12;100380.09;;;20.52;60.92
19005;BME280;9635;52.078;8.648;2022-08-03T00:53:34;100382.72;;;20.46;61.26
19005;BME280;9635;52.078;8.648;2022-08-03T00:58:39;100369.38;;;20.36;61.44
19005;BME280;9635;52.078;8.648;2022-08-03T01:03:42;100369.44;;;20.28;61.37
19005;BME280;9635;52.078;8.648;2022-08-03T01:08:57;100365.47;;;20.16;61.95
19005;BME280;9635;52.078;8.648;2022-08-03T01:14:07;100358.81;;;20.03;62.07
19005;BME280;9635;52.078;8.648;2022-08-03T01:19:34;100354.78;;;20.14;61.98
19005;BME280;9635;52.078;8.648;2022-08-03T01:24:46;100362.38;;;20.04;62.08
19005;BME280;9635;52.078;8.648;2022-08-03T01:29:59;100367.16;;;20.02;62.11
19005;BME280;9635;52.078;8.648;2022-08-03T01:35:08;100362.59;;;20.02;62.28
19005;BME280;9635;52.078;8.648;2022-08-03T01:40:14;100356.94;;;20.04;62.20
19005;BME280;9635;52.078;8.648;2022-08-03T01:45:19;100358.72;;;19.97;62.50
19005;BME280;9635;52.078;8.648;2022-08-03T01:50:26;100362.38;;;19.89;62.78
19005;BME280;9635;52.078;8.648;2022-08-03T01:55:31;100366.19;;;19.80;62.91
19005;BME280;9635;52.078;8.648;2022-08-03T02:00:37;100351.28;;;19.76;63.25
19005;BME280;9635;52.078;8.648;2022-08-03T02:05:42;100351.50;;;19.66;63.42
19005;BME280;9635;52.078;8.648;2022-08-03T02:10:47;100345.34;;;19.49;63.91
19005;BME280;9635;52.078;8.648;2022-08-03T02:15:53;100353.59;;;19.41;64.10
19005;BME280;9635;52.078;8.648;2022-08-03T02:20:58;100345.19;;;19.28;64.57
19005;BME280;9635;52.078;8.648;2022-08-03T02:26:13;100346.22;;;19.27;64.07
19005;BME280;9635;52.078;8.648;2022-08-03T02:31:22;100350.16;;;19.24;64.21
19005;BME280;9635;52.078;8.648;2022-08-03T02:36:28;100349.31;;;19.23;64.22
19005;BME280;9635;52.078;8.648;2022-08-03T02:41:40;100345.59;;;19.16;64.28
19005;BME280;9635;52.078;8.648;2022-08-03T02:46:45;100346.03;;;19.05;64.83
19005;BME280;9635;52.078;8.648;2022-08-03T02:51:51;100339.69;;;19.13;64.52
19005;BME280;9635;52.078;8.648;2022-08-03T02:56:55;100335.88;;;18.99;64.92
19005;BME280;9635;52.078;8.648;2022-08-03T03:02:01;100339.81;;;18.96;64.95
19005;BME280;9635;52.078;8.648;2022-08-03T03:07:04;100338.81;;;18.89;65.18
19005;BME280;9635;52.078;8.648;2022-08-03T03:12:09;100344.97;;;18.83;65.27
19005;BME280;9635;52.078;8.648;2022-08-03T03:17:16;100340.63;;;18.97;64.93
19005;BME280;9635;52.078;8.648;2022-08-03T03:22:20;100344.19;;;18.97;64.73
19005;BME280;9635;52.078;8.648;2022-08-03T03:27:23;100347.13;;;18.96;64.67
19005;BME280;9635;52.078;8.648;2022-08-03T03:32:29;100350.22;;;18.93;64.72
19005;BME280;9635;52.078;8.648;2022-08-03T03:37:32;100347.53;;;18.85;64.95
19005;BME280;9635;52.078;8.648;2022-08-03T03:42:35;100356.06;;;18.82;65.11
19005;BME280;9635;52.078;8.648;2022-08-03T03:47:40;100351.97;;;18.77;65.21
19005;BME280;9635;52.078;8.648;2022-08-03T03:52:43;100362.72;;;18.71;65.26
19005;BME280;9635;52.078;8.648;2022-08-03T03:57:46;100347.97;;;18.65;65.46
19005;BME280;9635;52.078;8.648;2022-08-03T04:02:50;100356.28;;;18.64;65.66
19005;BME280;9635;52.078;8.648;2022-08-03T04:07:57;100356.66;;;18.61;65.67
19005;BME280;9635;52.078;8.648;2022-08-03T04:13:19;100356.28;;;18.64;65.58
19005;BME280;9635;52.078;8.648;2022-08-03T04:18:25;100355.97;;;18.58;65.69
19005;BME280;9635;52.078;8.648;2022-08-03T04:23:33;100359.47;;;18.67;65.54
19005;BME280;9635;52.078;8.648;2022-08-03T04:28:38;100359.63;;;18.74;65.15
19005;BME280;9635;52.078;8.648;2022-08-03T04:33:44;100359.25;;;18.85;64.80
19005;BME280;9635;52.078;8.648;2022-08-03T04:38:54;100364.13;;;18.98;64.23
19005;BME280;9635;52.078;8.648;2022-08-03T04:43:58;100367.44;;;19.08;63.79
19005;BME280;9635;52.078;8.648;2022-08-03T04:49:04;100373.19;;;19.13;63.85
19005;BME280;9635;52.078;8.648;2022-08-03T04:54:11;100365.81;;;19.22;63.44
19005;BME280;9635;52.078;8.648;2022-08-03T04:59:13;100363.94;;;19.22;63.44
19005;BME280;9635;52.078;8.648;2022-08-03T05:04:19;100362.63;;;19.18;63.35
19005;BME280;9635;52.078;8.648;2022-08-03T05:09:23;100364.44;;;19.26;63.19
19005;BME280;9635;52.078;8.648;2022-08-03T05:14:46;100369.31;;;19.31;63.05
19005;BME280;9635;52.078;8.648;2022-08-03T05:19:50;100368.84;;;19.50;62.78
19005;BME280;9635;52.078;8.648;2022-08-03T05:24:53;100366.66;;;19.68;62.63
19005;BME280;9635;52.078;8.648;2022-08-03T05:29:56;100367.72;;;19.82;61.88
19005;BME280;9635;52.078;8.648;2022-08-03T05:35:20;100379.28;;;19.99;61.53
19005;BME280;9635;52.078;8.648;2022-08-03T05:40:45;100373.88;;;20.14;60.99
19005;BME280;9635;52.078;8.648;2022-08-03T05:46:08;100376.06;;;20.33;60.66
19005;BME280;9635;52.078;8.648;2022-08-03T05:51:15;100379.84;;;20.32;60.40
19005;BME280;9635;52.078;8.648;2022-08-03T05:56:20;100378.50;;;20.58;60.15
19005;BME280;9635;52.078;8.648;2022-08-03T06:01:23;100379.72;;;20.55;60.59
19005;BME280;9635;52.078;8.648;2022-08-03T06:06:28;100383.81;;;20.81;60.24
19005;BME280;9635;52.078;8.648;2022-08-03T06:11:33;100378.25;;;21.04;59.87
19005;BME280;9635;52.078;8.648;2022-08-03T06:16:35;100376.03;;;21.36;59.63
19005;BME280;9635;52.078;8.648;2022-08-03T06:21:40;100373.41;;;21.71;59.46
19005;BME280;9635;52.078;8.648;2022-08-03T06:26:43;100373.50;;;22.05;57.50
19005;BME280;9635;52.078;8.648;2022-08-03T06:31:46;100384.75;;;22.24;56.45
19005;BME280;9635;52.078;8.648;2022-08-03T06:36:50;100385.75;;;22.44;56.04
19005;BME280;9635;52.078;8.648;2022-08-03T06:42:02;100379.13;;;22.73;56.26
19005;BME280;9635;52.078;8.648;2022-08-03T06:47:07;100376.91;;;22.97;55.81
19005;BME280;9635;52.078;8.648;2022-08-03T06:52:11;100386.91;;;23.18;55.48
19005;BME280;9635;52.078;8.648;2022-08-03T06:57:34;100385.44;;;23.35;52.83
19005;BME280;9635;52.078;8.648;2022-08-03T07:02:37;100384.00;;;23.46;53.06
19005;BME280;9635;52.078;8.648;2022-08-03T07:07:42;100383.34;;;23.64;52.06
19005;BME280;9635;52.078;8.648;2022-08-03T07:12:45;100380.88;;;23.89;52.40
19005;BME280;9635;52.078;8.648;2022-08-03T07:17:57;100383.59;;;23.96;51.14
19005;BME280;9635;52.078;8.648;2022-08-03T07:23:01;100385.84;;;24.32;51.44
19005;BME280;9635;52.078;8.648;2022-08-03T07:28:04;100392.31;;;24.64;50.16
19005;BME280;9635;52.078;8.648;2022-08-03T07:33:07;100390.84;;;25.13;49.52
19005;BME280;9635;52.078;8.648;2022-08-03T07:38:11;100399.44;;;24.79;49.25
19005;BME280;9635;52.078;8.648;2022-08-03T07:43:14;100393.00;;;25.43;48.24
19005;BME280;9635;52.078;8.648;2022-08-03T07:48:18;100393.44;;;26.59;46.12
19005;BME280;9635;52.078;8.648;2022-08-03T07:53:23;100390.41;;;27.15;44.86
19005;BME280;9635;52.078;8.648;2022-08-03T07:58:26;100380.03;;;26.99;44.86
19005;BME280;9635;52.078;8.648;2022-08-03T08:03:29;100391.84;;;26.88;45.13
19005;BME280;9635;52.078;8.648;2022-08-03T08:08:53;100393.41;;;26.95;44.21
19005;BME280;9635;52.078;8.648;2022-08-03T08:14:00;100390.94;;;27.36;44.06
19005;BME280;9635;52.078;8.648;2022-08-03T08:19:04;100386.38;;;27.30;43.09
19005;BME280;9635;52.078;8.648;2022-08-03T08:24:08;100395.94;;;26.97;43.04
19005;BME280;9635;52.078;8.648;2022-08-03T08:29:18;100392.78;;;27.42;42.34
19005;BME280;9635;52.078;8.648;2022-08-03T08:34:23;100388.88;;;27.31;42.73
19005;BME280;9635;52.078;8.648;2022-08-03T08:39:27;100395.72;;;27.71;41.81
19005;BME280;9635;52.078;8.648;2022-08-03T08:44:30;100376.94;;;28.15;41.18
19005;BME280;9635;52.078;8.648;2022-08-03T08:49:34;100385.88;;;28.57;41.40
19005;BME280;9635;52.078;8.648;2022-08-03T08:54:40;100377.25;;;28.42;41.01
19005;BME280;9635;52.078;8.648;2022-08-03T08:59:45;100386.84;;;28.51;40.93
19005;BME280;9635;52.078;8.648;2022-08-03T09:04:52;100382.38;;;29.02;39.95
19005;BME280;9635;52.078;8.648;2022-08-03T09:09:56;100375.72;;;29.15;39.07
19005;BME280;9635;52.078;8.648;2022-08-03T09:15:16;100375.72;;;29.15;39.12
19005;BME280;9635;52.078;8.648;2022-08-03T09:20:20;100369.97;;;29.62;38.40
19005;BME280;9635;52.078;8.648;2022-08-03T09:25:29;100370.13;;;29.72;38.94
19005;BME280;9635;52.078;8.648;2022-08-03T09:30:33;100372.00;;;29.21;38.93
19005;BME280;9635;52.078;8.648;2022-08-03T09:35:40;100367.34;;;29.72;38.38
19005;BME280;9635;52.078;8.648;2022-08-03T09:41:00;100362.31;;;30.20;38.20
19005;BME280;9635;52.078;8.648;2022-08-03T09:46:04;100359.09;;;30.28;38.82
19005;BME280;9635;52.078;8.648;2022-08-03T09:51:08;100368.63;;;30.81;37.03
19005;BME280;9635;52.078;8.648;2022-08-03T09:56:40;100362.47;;;29.96;39.19
19005;BME280;9635;52.078;8.648;2022-08-03T10:01:43;100371.53;;;29.92;38.96
19005;BME280;9635;52.078;8.648;2022-08-03T10:07:03;100362.88;;;30.05;38.95
19005;BME280;9635;52.078;8.648;2022-08-03T10:12:08;100363.31;;;30.75;38.16
19005;BME280;9635;52.078;8.648;2022-08-03T10:17:12;100348.53;;;29.24;39.25
19005;BME280;9635;52.078;8.648;2022-08-03T10:22:18;100364.34;;;30.30;37.59
19005;BME280;9635;52.078;8.648;2022-08-03T10:27:23;100349.53;;;31.66;36.20
19005;BME280;9635;52.078;8.648;2022-08-03T10:32:29;100337.38;;;31.72;36.63
19005;BME280;9635;52.078;8.648;2022-08-03T10:37:37;100344.81;;;30.80;36.95
19005;BME280;9635;52.078;8.648;2022-08-03T10:43:03;100344.81;;;30.63;36.63
19005;BME280;9635;52.078;8.648;2022-08-03T10:48:09;100333.38;;;31.63;36.52
19005;BME280;9635;52.078;8.648;2022-08-03T10:53:12;100336.50;;;32.14;33.91
19005;BME280;9635;52.078;8.648;2022-08-03T10:58:47;100340.94;;;31.35;35.07
19005;BME280;9635;52.078;8.648;2022-08-03T11:04:14;100321.25;;;32.12;34.43
19005;BME280;9635;52.078;8.648;2022-08-03T11:09:17;100322.81;;;31.60;35.09
19005;BME280;9635;52.078;8.648;2022-08-03T11:14:22;100316.31;;;30.90;36.10
19005;BME280;9635;52.078;8.648;2022-08-03T11:19:42;100322.75;;;32.35;34.10
19005;BME280;9635;52.078;8.648;2022-08-03T11:24:59;100314.00;;;32.69;33.21
19005;BME280;9635;52.078;8.648;2022-08-03T11:30:06;100312.78;;;31.91;33.88
19005;BME280;9635;52.078;8.648;2022-08-03T11:35:12;100308.03;;;32.34;33.01
19005;BME280;9635;52.078;8.648;2022-08-03T11:40:37;100314.91;;;31.14;34.45
19005;BME280;9635;52.078;8.648;2022-08-03T11:45:55;100305.59;;;31.95;34.04
19005;BME280;9635;52.078;8.648;2022-08-03T11:50:59;100299.88;;;31.38;33.78
19005;BME280;9635;52.078;8.648;2022-08-03T11:56:02;100327.34;;;30.85;35.25
19005;BME280;9635;52.078;8.648;2022-08-03T12:01:14;100314.34;;;33.13;32.54
19005;BME280;9635;52.078;8.648;2022-08-03T12:06:23;100301.94;;;34.42;31.05
19005;BME280;9635;52.078;8.648;2022-08-03T12:11:26;100302.06;;;32.68;33.52
19005;BME280;9635;52.078;8.648;2022-08-03T12:16:32;100302.72;;;33.57;32.49
19005;BME280;9635;52.078;8.648;2022-08-03T12:21:44;100297.47;;;32.36;33.59
19005;BME280;9635;52.078;8.648;2022-08-03T12:26:57;100286.84;;;33.58;32.35
19005;BME280;9635;52.078;8.648;2022-08-03T12:32:02;100294.72;;;34.41;30.69
19005;BME280;9635;52.078;8.648;2022-08-03T12:37:05;100291.88;;;33.20;31.65
19005;BME280;9635;52.078;8.648;2022-08-03T12:42:29;100281.34;;;34.38;31.38
19005;BME280;9635;52.078;8.648;2022-08-03T12:47:54;100287.31;;;34.76;30.21
19005;BME280;9635;52.078;8.648;2022-08-03T12:52:58;100281.31;;;33.27;31.53
19005;BME280;9635;52.078;8.648;2022-08-03T12:58:02;100275.13;;;34.61;30.18
19005;BME280;9635;52.078;8.648;2022-08-03T13:03:06;100272.72;;;34.89;30.15
19005;BME280;9635;52.078;8.648;2022-08-03T13:08:29;100277.53;;;35.18;30.15
19005;BME280;9635;52.078;8.648;2022-08-03T13:13:38;100270.53;;;35.20;29.54
19005;BME280;9635;52.078;8.648;2022-08-03T13:18:43;100268.81;;;34.35;30.14
19005;BME280;9635;52.078;8.648;2022-08-03T13:23:48;100253.69;;;36.56;28.31
19005;BME280;9635;52.078;8.648;2022-08-03T13:28:51;100267.38;;;35.90;28.15
19005;BME280;9635;52.078;8.648;2022-08-03T13:33:55;100258.38;;;36.42;27.53
19005;BME280;9635;52.078;8.648;2022-08-03T13:38:58;100252.28;;;34.94;29.28
19005;BME280;9635;52.078;8.648;2022-08-03T13:44:03;100254.28;;;36.53;27.30
19005;BME280;9635;52.078;8.648;2022-08-03T13:49:27;100239.47;;;36.71;28.13
19005;BME280;9635;52.078;8.648;2022-08-03T13:54:30;100241.25;;;35.76;28.56
19005;BME280;9635;52.078;8.648;2022-08-03T13:59:34;100234.94;;;35.07;29.22
19005;BME280;9635;52.078;8.648;2022-08-03T14:04:38;100230.56;;;34.91;29.28
19005;BME280;9635;52.078;8.648;2022-08-03T14:09:41;100232.38;;;36.17;27.66
19005;BME280;9635;52.078;8.648;2022-08-03T14:14:44;100222.81;;;36.99;27.28
19005;BME280;9635;52.078;8.648;2022-08-03T14:19:48;100225.25;;;34.50;29.01
19005;BME280;9635;52.078;8.648;2022-08-03T14:24:54;100220.56;;;34.84;28.75
19005;BME280;9635;52.078;8.648;2022-08-03T14:29:58;100225.75;;;36.13;27.54
19005;BME280;9635;52.078;8.648;2022-08-03T14:35:04;100216.81;;;36.54;26.80
19005;BME280;9635;52.078;8.648;2022-08-03T14:40:07;100207.75;;;35.18;28.16
19005;BME280;9635;52.078;8.648;2022-08-03T14:45:10;100205.78;;;35.18;28.55
19005;BME280;9635;52.078;8.648;2022-08-03T14:50:22;100208.47;;;34.05;29.90
19005;BME280;9635;52.078;8.648;2022-08-03T14:55:39;100205.75;;;34.45;29.82
19005;BME280;9635;52.078;8.648;2022-08-03T15:00:52;100198.59;;;35.41;29.33
19005;BME280;9635;52.078;8.648;2022-08-03T15:05:56;100193.31;;;34.76;29.31
19005;BME280;9635;52.078;8.648;2022-08-03T15:10:59;100183.38;;;35.28;28.71
19005;BME280;9635;52.078;8.648;2022-08-03T15:16:05;100188.53;;;36.55;26.97
19005;BME280;9635;52.078;8.648;2022-08-03T15:21:10;100188.91;;;34.99;29.34
19005;BME280;9635;52.078;8.648;2022-08-03T15:26:33;100176.06;;;34.69;29.44
19005;BME280;9635;52.078;8.648;2022-08-03T15:31:42;100185.78;;;34.32;29.80
19005;BME280;9635;52.078;8.648;2022-08-03T15:36:46;100176.88;;;35.86;28.02
19005;BME280;9635;52.078;8.648;2022-08-03T15:41:49;100172.00;;;35.49;28.72
19005;BME280;9635;52.078;8.648;2022-08-03T15:46:52;100171.59;;;35.85;29.14
19005;BME280;9635;52.078;8.648;2022-08-03T15:51:56;100173.22;;;35.14;29.81
19005;BME280;9635;52.078;8.648;2022-08-03T15:56:59;100178.63;;;36.63;27.30
19005;BME280;9635;52.078;8.648;2022-08-03T16:02:02;100161.28;;;36.23;27.57
19005;BME280;9635;52.078;8.648;2022-08-03T16:07:06;100167.06;;;35.65;28.44
19005;BME280;9635;52.078;8.648;2022-08-03T16:12:13;100173.94;;;34.56;29.60
19005;BME280;9635;52.078;8.648;2022-08-03T16:17:17;100181.91;;;33.63;31.11
19005;BME280;9635;52.078;8.648;2022-08-03T16:22:22;100172.16;;;33.40;31.70
19005;BME280;9635;52.078;8.648;2022-08-03T16:27:25;100167.19;;;32.65;32.49
19005;BME280;9635;52.078;8.648;2022-08-03T16:32:48;100165.78;;;33.35;32.08
19005;BME280;9635;52.078;8.648;2022-08-03T16:37:53;100171.78;;;34.82;30.66
19005;BME280;9635;52.078;8.648;2022-08-03T16:42:57;100170.28;;;35.24;29.54
19005;BME280;9635;52.078;8.648;2022-08-03T16:48:00;100158.50;;;34.69;30.03
19005;BME280;9635;52.078;8.648;2022-08-03T16:53:09;100164.34;;;35.60;28.74
19005;BME280;9635;52.078;8.648;2022-08-03T16:58:17;100156.50;;;35.33;29.50
19005;BME280;9635;52.078;8.648;2022-08-03T17:03:40;100166.44;;;33.96;30.10
19005;BME280;9635;52.078;8.648;2022-08-03T17:09:06;100151.03;;;36.18;28.17
19005;BME280;9635;52.078;8.648;2022-08-03T17:14:11;100159.81;;;37.01;27.00
19005;BME280;9635;52.078;8.648;2022-08-03T17:19:15;100159.28;;;37.46;27.35
19005;BME280;9635;52.078;8.648;2022-08-03T17:24:23;100160.19;;;38.47;26.59
19005;BME280;9635;52.078;8.648;2022-08-03T17:29:32;100153.75;;;41.15;23.85
19005;BME280;9635;52.078;8.648;2022-08-03T17:34:37;100155.66;;;39.67;24.66
19005;BME280;9635;52.078;8.648;2022-08-03T17:39:41;100151.53;;;40.65;23.99
19005;BME280;9635;52.078;8.648;2022-08-03T17:45:01;100155.31;;;39.60;24.46
19005;BME280;9635;52.078;8.648;2022-08-03T17:50:07;100161.13;;;39.63;25.62
19005;BME280;9635;52.078;8.648;2022-08-03T17:55:29;100159.66;;;39.75;25.04
19005;BME280;9635;52.078;8.648;2022-08-03T18:00:54;100169.16;;;37.71;26.89
19005;BME280;9635;52.078;8.648;2022-08-03T18:06:37;100171.06;;;36.45;30.19
19005;BME280;9635;52.078;8.648;2022-08-03T18:12:05;100170.09;;;34.41;31.03
19005;BME280;9635;52.078;8.648;2022-08-03T18:17:13;100176.09;;;32.83;34.01
19005;BME280;9635;52.078;8.648;2022-08-03T18:22:20;100179.19;;;31.88;35.63
19005;BME280;9635;52.078;8.648;2022-08-03T18:27:29;100178.03;;;31.31;36.62
19005;BME280;9635;52.078;8.648;2022-08-03T18:32:52;100179.09;;;30.93;37.38
19005;BME280;9635;52.078;8.648;2022-08-03T18:38:16;100187.25;;;30.72;38.58
19005;BME280;9635;52.078;8.648;2022-08-03T18:43:25;100180.81;;;30.39;39.43
19005;BME280;9635;52.078;8.648;2022-08-03T18:48:53;100185.47;;;30.12;39.11
19005;BME280;9635;52.078;8.648;2022-08-03T18:54:05;100188.09;;;30.01;39.51
19005;BME280;9635;52.078;8.648;2022-08-03T19:04:57;100183.28;;;29.53;40.25
19005;BME280;9635;52.078;8.648;2022-08-03T19:10:05;100195.06;;;29.43;40.66
19005;BME280;9635;52.078;8.648;2022-08-03T19:15:12;100197.81;;;29.09;41.24
19005;BME280;9635;52.078;8.648;2022-08-03T19:20:20;100206.38;;;28.91;41.30
19005;BME280;9635;52.078;8.648;2022-08-03T19:25:26;100202.31;;;28.82;41.73
19005;BME280;9635;52.078;8.648;2022-08-03T19:30:37;100205.22;;;28.58;41.77
19005;BME280;9635;52.078;8.648;2022-08-03T19:35:48;100207.25;;;28.51;41.99
19005;BME280;9635;52.078;8.648;2022-08-03T19:40:59;100209.38;;;28.32;42.21
19005;BME280;9635;52.078;8.648;2022-08-03T19:46:10;100210.22;;;28.33;42.04
19005;BME280;9635;52.078;8.648;2022-08-03T19:51:16;100199.84;;;28.23;41.89
19005;BME280;9635;52.078;8.648;2022-08-03T19:56:43;100212.31;;;28.14;42.49
19005;BME280;9635;52.078;8.648;2022-08-03T20:01:48;100211.66;;;28.07;43.06
19005;BME280;9635;52.078;8.648;2022-08-03T20:06:56;100216.47;;;27.99;43.93
19005;BME280;9635;52.078;8.648;2022-08-03T20:11:59;100214.19;;;27.84;44.59
19005;BME280;9635;52.078;8.648;2022-08-03T20:17:03;100218.66;;;27.74;44.69
19005;BME280;9635;52.078;8.648;2022-08-03T20:22:11;100221.16;;;27.64;44.87
19005;BME280;9635;52.078;8.648;2022-08-03T20:27:19;100215.69;;;27.40;43.63
19005;BME280;9635;52.078;8.648;2022-08-03T20:32:30;100215.44;;;27.42;43.60
19005;BME280;9635;52.078;8.648;2022-08-03T20:37:36;100220.31;;;27.16;44.50
19005;BME280;9635;52.078;8.648;2022-08-03T20:42:42;100218.50;;;26.68;45.21
19005;BME280;9635;52.078;8.648;2022-08-03T20:47:45;100226.88;;;26.31;46.11
19005;BME280;9635;52.078;8.648;2022-08-03T20:53:10;100223.72;;;26.09;47.20
19005;BME280;9635;52.078;8.648;2022-08-03T20:58:13;100231.16;;;25.90;47.61
19005;BME280;9635;52.078;8.648;2022-08-03T21:03:17;100219.56;;;25.63;48.31
19005;BME280;9635;52.078;8.648;2022-08-03T21:08:24;100213.84;;;25.21;49.25
19005;BME280;9635;52.078;8.648;2022-08-03T21:13:31;100224.66;;;25.41;49.03
19005;BME280;9635;52.078;8.648;2022-08-03T21:18:43;100225.44;;;25.73;48.48
19005;BME280;9635;52.078;8.648;2022-08-03T21:23:52;100232.13;;;25.77;48.92
19005;BME280;9635;52.078;8.648;2022-08-03T21:28:55;100220.50;;;25.57;49.25
19005;BME280;9635;52.078;8.648;2022-08-03T21:34:01;100215.16;;;25.62;49.33
19005;BME280;9635;52.078;8.648;2022-08-03T21:39:07;100222.50;;;25.68;49.18
19005;BME280;9635;52.078;8.648;2022-08-03T21:44:10;100212.00;;;25.58;49.29
19005;BME280;9635;52.078;8.648;2022-08-03T21:49:13;100221.09;;;25.59;49.79
19005;BME280;9635;52.078;8.648;2022-08-03T21:54:41;100220.06;;;25.53;49.90
19005;BME280;9635;52.078;8.648;2022-08-03T21:59:49;100218.06;;;25.42;50.31
19005;BME280;9635;52.078;8.648;2022-08-03T22:04:55;100218.63;;;25.32;50.39
19005;BME280;9635;52.078;8.648;2022-08-03T22:10:01;100230.81;;;25.36;49.91
19005;BME280;9635;52.078;8.648;2022-08-03T22:15:08;100228.31;;;25.35;50.01
19005;BME280;9635;52.078;8.648;2022-08-03T22:20:12;100223.09;;;25.27;50.52
19005;BME280;9635;52.078;8.648;2022-08-03T22:25:17;100217.22;;;24.91;51.62
19005;BME280;9635;52.078;8.648;2022-08-03T22:30:22;100215.66;;;24.77;52.60
19005;BME280;9635;52.078;8.648;2022-08-03T22:35:26;100220.34;;;24.70;52.68
19005;BME280;9635;52.078;8.648;2022-08-03T22:40:30;100230.50;;;24.69;53.03
19005;BME280;9635;52.078;8.648;2022-08-03T22:45:34;100233.09;;;24.58;53.33
19005;BME280;9635;52.078;8.648;2022-08-03T22:50:58;100230.19;;;24.46;54.15
19005;BME280;9635;52.078;8.648;2022-08-03T22:56:02;100237.22;;;24.28;53.87
19005;BME280;9635;52.078;8.648;2022-08-03T23:01:07;100239.91;;;23.90;54.45
19005;BME280;9635;52.078;8.648;2022-08-03T23:06:10;100242.72;;;23.57;55.86
19005;BME280;9635;52.078;8.648;2022-08-03T23:11:17;100238.69;;;23.73;56.09
19005;BME280;9635;52.078;8.648;2022-08-03T23:16:20;100238.69;;;23.73;55.67
19005;BME280;9635;52.078;8.648;2022-08-03T23:21:30;100235.72;;;23.61;56.49
19005;BME280;9635;52.078;8.648;2022-08-03T23:26:54;100231.72;;;23.83;55.69
19005;BME280;9635;52.078;8.648;2022-08-03T23:32:00;100235.97;;;23.46;56.16
19005;BME280;9635;52.078;8.648;2022-08-03T23:37:04;100232.78;;;23.03;57.85
19005;BME280;9635;52.078;8.648;2022-08-03T23:42:09;100221.22;;;23.14;57.62
19005;BME280;9635;52.078;8.648;2022-08-03T23:47:13;100222.06;;;23.14;57.58
19005;BME280;9635;52.078;8.648;2022-08-03T23:52:28;100224.59;;;22.96;58.03
19005;BME280;9635;52.078;8.648;2022-08-03T23:57:48;100221.88;;;23.16;57.42
